Time;durP1;ratioP1;P1;durP2;ratioP2;P2;SDS_P1;SDS_P2;PMS_P1;PMS_P2;Temp;Humidity;BMP_temperature;BMP_pressure;BME280_temperature;BME280_humidity;BME280_pressure;Samples;Min_cycle;Max_cycle;Signal;HPM_P1;HPM_P2
2022/05/31 03:00:36;;;;;;;0.80;0.60;;;22.10;41.80;;;;;;5823448;23;45766;-66
2022/05/31 03:03:02;;;;;;;0.93;0.50;;;22.10;41.80;;;;;;4892894;28;45751;-64
2022/05/31 03:05:28;;;;;;;0.40;0.30;;;22.10;41.80;;;;;;4902853;28;45273;-64
2022/05/31 03:07:53;;;;;;;0.70;0.50;;;22.10;41.80;;;;;;4899198;28;47096;-62
2022/05/31 03:10:19;;;;;;;0.45;0.43;;;22.10;41.80;;;;;;4902055;28;45287;-62
2022/05/31 03:12:44;;;;;;;0.60;0.50;;;22.10;41.80;;;;;;4882946;28;45301;-65
2022/05/31 03:15:12;;;;;;;1.08;0.52;;;22.10;41.80;;;;;;4888210;28;45134;-61
2022/05/31 03:17:43;;;;;;;0.45;0.45;;;22.10;41.80;;;;;;4871336;29;46136;-64
2022/05/31 03:20:24;;;;;;;0.30;0.30;;;22.10;41.80;;;;;;4882835;28;45854;-63
2022/05/31 03:22:52;;;;;;;0.65;0.63;;;22.10;41.80;;;;;;4887586;28;45271;-64
2022/05/31 03:25:23;;;;;;;0.52;0.43;;;22.10;41.80;;;;;;4898967;28;45029;-64
2022/05/31 03:27:49;;;;;;;0.50;0.40;;;22.10;41.90;;;;;;4875080;28;45276;-63
2022/05/31 03:30:14;;;;;;;0.50;0.50;;;22.00;41.80;;;;;;4893426;28;45730;-64
2022/05/31 03:32:40;;;;;;;0.50;0.50;;;22.00;41.90;;;;;;4891284;28;45588;-64
2022/05/31 03:35:06;;;;;;;1.00;0.50;;;22.00;41.90;;;;;;4873658;28;45470;-62
2022/05/31 03:37:32;;;;;;;0.50;0.50;;;22.00;41.90;;;;;;4876132;29;46440;-64
2022/05/31 03:39:58;;;;;;;0.50;0.50;;;22.00;41.90;;;;;;4902274;28;45463;-63
2022/05/31 03:42:23;;;;;;;2.75;0.52;;;22.00;41.80;;;;;;4889872;28;45570;-64
2022/05/31 03:44:51;;;;;;;0.40;0.40;;;22.00;41.90;;;;;;4904307;28;45155;-61
2022/05/31 03:47:16;;;;;;;0.50;0.47;;;22.00;41.90;;;;;;4896311;28;45590;-64
2022/05/31 03:49:42;;;;;;;0.70;0.60;;;22.00;41.90;;;;;;4885501;28;45405;-63
2022/05/31 03:52:08;;;;;;;0.75;0.50;;;22.00;41.90;;;;;;4895959;28;44956;-64
2022/05/31 03:54:36;;;;;;;0.50;0.50;;;22.00;41.90;;;;;;4896729;28;45451;-65
2022/05/31 03:57:04;;;;;;;0.55;0.45;;;22.00;41.90;;;;;;4893389;28;46040;-64
2022/05/31 03:59:33;;;;;;;0.80;0.40;;;22.00;41.90;;;;;;4893336;28;45438;-64
2022/05/31 04:01:59;;;;;;;0.65;0.50;;;22.00;41.90;;;;;;4892505;28;45701;-65
2022/05/31 04:04:24;;;;;;;0.77;0.50;;;22.00;41.90;;;;;;4900274;28;45454;-66
2022/05/31 04:06:50;;;;;;;0.40;0.40;;;21.90;41.90;;;;;;4898592;28;46116;-60
2022/05/31 04:09:15;;;;;;;0.60;0.60;;;21.90;41.90;;;;;;4895200;28;45529;-64
2022/05/31 04:11:41;;;;;;;0.90;0.60;;;21.90;41.90;;;;;;4900591;28;45395;-64
2022/05/31 04:14:06;;;;;;;0.40;0.40;;;21.90;41.90;;;;;;4898010;28;45567;-64
2022/05/31 04:16:32;;;;;;;0.88;0.50;;;21.90;41.90;;;;;;4894681;28;45431;-64
2022/05/31 04:18:58;;;;;;;0.50;0.50;;;21.90;41.90;;;;;;4891631;28;45286;-64
2022/05/31 04:21:24;;;;;;;0.55;0.40;;;21.90;42.00;;;;;;4892288;28;45594;-64
2022/05/31 04:23:59;;;;;;;0.70;0.50;;;21.90;41.90;;;;;;4896097;28;45758;-65
2022/05/31 04:26:30;;;;;;;0.45;0.40;;;21.90;42.00;;;;;;4888922;28;46324;-64
2022/05/31 04:28:56;;;;;;;0.32;0.32;;;21.90;42.00;;;;;;4890730;28;45426;-65
2022/05/31 04:31:22;;;;;;;0.40;0.30;;;21.90;42.00;;;;;;4889839;28;45052;-65
2022/05/31 04:33:47;;;;;;;1.10;0.47;;;21.90;42.00;;;;;;4888752;28;45294;-63
2022/05/31 04:36:14;;;;;;;0.50;0.50;;;21.90;42.00;;;;;;4874983;28;45942;-63
2022/05/31 04:38:40;;;;;;;0.52;0.50;;;21.80;42.00;;;;;;4892609;28;45537;-65
2022/05/31 04:41:06;;;;;;;0.50;0.43;;;21.80;42.00;;;;;;4897324;28;45448;-65
2022/05/31 04:43:33;;;;;;;0.60;0.60;;;21.80;42.00;;;;;;4889913;28;45530;-67
2022/05/31 04:46:20;;;;;;;0.88;0.50;;;21.80;42.00;;;;;;4896378;28;46283;-64
2022/05/31 04:48:46;;;;;;;0.85;0.50;;;21.80;42.00;;;;;;4878458;28;45350;-63
2022/05/31 04:51:14;;;;;;;1.25;0.60;;;21.80;42.00;;;;;;4895496;28;45479;-64
2022/05/31 04:53:40;;;;;;;1.05;0.68;;;21.80;42.10;;;;;;4896613;28;45539;-64
2022/05/31 04:56:08;;;;;;;0.80;0.52;;;21.80;42.00;;;;;;4906559;28;45341;-64
2022/05/31 04:58:34;;;;;;;0.63;0.60;;;21.80;42.10;;;;;;4891803;28;46102;-65
2022/05/31 05:01:01;;;;;;;0.73;0.55;;;21.80;42.00;;;;;;4885566;28;47784;-64
2022/05/31 05:03:30;;;;;;;0.60;0.40;;;21.80;42.10;;;;;;4895403;28;45298;-63
2022/05/31 05:06:06;;;;;;;1.38;0.47;;;21.80;42.10;;;;;;4902481;28;45999;-62
2022/05/31 05:08:32;;;;;;;1.58;0.50;;;21.80;42.10;;;;;;4873537;29;45295;-65
2022/05/31 05:11:01;;;;;;;0.32;0.32;;;21.80;42.10;;;;;;4913508;28;45356;-64
2022/05/31 05:13:27;;;;;;;0.60;0.45;;;21.90;42.10;;;;;;4909249;28;45608;-64
2022/05/31 05:15:55;;;;;;;0.70;0.43;;;21.90;42.10;;;;;;4914496;28;46384;-64
2022/05/31 05:18:21;;;;;;;0.50;0.43;;;21.90;42.10;;;;;;4911685;28;45245;-68
2022/05/31 05:20:46;;;;;;;0.50;0.50;;;21.90;42.00;;;;;;4917371;28;45664;-64
2022/05/31 05:23:12;;;;;;;0.98;0.60;;;21.90;41.90;;;;;;4910132;28;44727;-63
2022/05/31 05:25:37;;;;;;;0.60;0.57;;;22.00;41.90;;;;;;4908038;28;45402;-64
2022/05/31 05:30:38;;;;;;;0.68;0.50;;;22.00;41.90;;;;;;4924059;28;45424;-64
2022/05/31 05:30:49;;;;;;;0.60;0.47;;;22.00;41.90;;;;;;4905329;28;45554;-64
2022/05/31 05:33:14;;;;;;;0.70;0.68;;;22.00;41.90;;;;;;4902429;28;45599;-64
2022/05/31 05:35:40;;;;;;;0.85;0.70;;;22.00;42.00;;;;;;4910612;28;45975;-64
2022/05/31 05:38:06;;;;;;;1.55;0.80;;;21.90;42.00;;;;;;4913773;28;45578;-65
2022/05/31 05:40:33;;;;;;;1.50;0.65;;;21.90;42.00;;;;;;4917815;28;45231;-61
2022/05/31 05:42:59;;;;;;;0.50;0.50;;;22.00;42.10;;;;;;4918223;28;44853;-62
2022/05/31 05:45:25;;;;;;;3.08;0.50;;;22.00;42.10;;;;;;4920312;28;45296;-68
2022/05/31 05:47:50;;;;;;;1.05;0.80;;;22.00;42.10;;;;;;4919762;28;45233;-63
2022/05/31 05:50:16;;;;;;;0.50;0.50;;;22.00;42.10;;;;;;4905102;28;44830;-64
2022/05/31 05:52:41;;;;;;;0.40;0.40;;;21.90;42.10;;;;;;4913856;28;45089;-65
2022/05/31 05:55:07;;;;;;;0.60;0.50;;;21.90;42.10;;;;;;4896748;28;45938;-66
2022/05/31 05:57:33;;;;;;;0.60;0.60;;;21.90;42.10;;;;;;4916297;28;45222;-64
2022/05/31 05:59:58;;;;;;;0.88;0.68;;;21.90;42.10;;;;;;4916646;28;45408;-64
2022/05/31 06:02:29;;;;;;;1.27;0.50;;;21.90;42.10;;;;;;4920803;28;45136;-64
2022/05/31 06:05:10;;;;;;;1.17;0.40;;;22.00;42.20;;;;;;4891380;28;46185;-61
2022/05/31 06:07:38;;;;;;;;;;;22.00;42.10;;;;;;4898620;28;44917;-58
2022/05/31 06:10:08;;;;;;;0.60;0.50;;;22.00;42.10;;;;;;4914427;28;44904;-59
2022/05/31 06:12:36;;;;;;;0.55;0.55;;;22.10;42.00;;;;;;4890861;28;45600;-56
2022/05/31 06:15:07;;;;;;;0.90;0.60;;;22.10;41.90;;;;;;4895632;28;46105;-55
2022/05/31 06:17:37;;;;;;;1.02;0.70;;;22.20;41.80;;;;;;4890603;28;45338;-55
2022/05/31 06:20:05;;;;;;;2.80;0.45;;;22.20;41.80;;;;;;4893221;28;45864;-58
2022/05/31 06:22:30;;;;;;;0.77;0.52;;;22.30;41.90;;;;;;4913082;28;45170;-58
2022/05/31 06:24:57;;;;;;;0.85;0.30;;;22.30;41.80;;;;;;4907976;28;45948;-56
2022/05/31 06:27:23;;;;;;;1.13;0.50;;;22.30;41.70;;;;;;4895902;28;45336;-57
2022/05/31 06:29:49;;;;;;;0.95;0.50;;;22.40;41.70;;;;;;4915262;28;45400;-55
2022/05/31 06:32:16;;;;;;;0.40;0.40;;;22.40;41.60;;;;;;4908578;28;45203;-58
2022/05/31 06:34:41;;;;;;;1.27;0.60;;;22.40;41.60;;;;;;4903027;28;47253;-59
2022/05/31 06:37:09;;;;;;;0.95;0.40;;;22.50;41.50;;;;;;4923561;28;44915;-56
2022/05/31 06:39:35;;;;;;;0.65;0.38;;;22.60;41.40;;;;;;4913661;28;45420;-54
2022/05/31 06:42:01;;;;;;;0.93;0.52;;;22.70;41.30;;;;;;4920757;28;44942;-57
2022/05/31 06:44:29;;;;;;;2.42;0.60;;;22.80;41.20;;;;;;4913540;28;46288;-59
2022/05/31 06:46:56;;;;;;;0.50;0.47;;;22.90;41.10;;;;;;4914433;28;45517;-58
2022/05/31 06:49:22;;;;;;;0.65;0.50;;;22.90;40.90;;;;;;4912778;28;45404;-57
2022/05/31 06:57:16;;;;;;;0.40;0.40;;;23.10;40.90;;;;;;4916300;28;45545;-59
2022/05/31 06:59:42;;;;;;;0.73;0.70;;;23.10;40.90;;;;;;4913364;28;45541;-54
2022/05/31 07:02:07;;;;;;;0.65;0.52;;;23.10;41.00;;;;;;4909273;28;45571;-56
2022/05/31 07:04:36;;;;;;;0.43;0.43;;;23.10;41.00;;;;;;4912597;28;46111;-55
2022/05/31 07:07:02;;;;;;;0.65;0.50;;;23.10;41.00;;;;;;4890897;28;44659;-56
2022/05/31 07:09:28;;;;;;;1.10;0.50;;;23.10;41.10;;;;;;4920956;28;44864;-59
2022/05/31 07:11:56;;;;;;;0.77;0.40;;;23.10;41.10;;;;;;4920762;28;45290;-58
2022/05/31 07:14:23;;;;;;;1.58;0.40;;;23.10;41.10;;;;;;4912071;28;46084;-54
2022/05/31 07:16:49;;;;;;;0.40;0.40;;;23.10;41.10;;;;;;4910164;28;45424;-56
2022/05/31 07:19:15;;;;;;;0.63;0.52;;;23.10;41.20;;;;;;4920740;28;46441;-55
2022/05/31 07:21:40;;;;;;;0.45;0.43;;;23.10;41.20;;;;;;4909885;28;45980;-58
2022/05/31 07:24:06;;;;;;;2.17;0.50;;;23.10;41.20;;;;;;4904705;28;46986;-57
2022/05/31 07:26:32;;;;;;;1.05;0.40;;;23.10;41.20;;;;;;4910781;28;45246;-58
2022/05/31 07:28:57;;;;;;;1.58;0.70;;;23.10;41.20;;;;;;4911503;28;45333;-55
2022/05/31 07:31:23;;;;;;;1.40;0.50;;;23.20;41.20;;;;;;4911869;28;45519;-57
2022/05/31 07:33:48;;;;;;;1.58;0.63;;;23.20;41.20;;;;;;4898309;28;46951;-58
2022/05/31 07:36:14;;;;;;;1.25;0.47;;;23.20;41.30;;;;;;4913852;28;45373;-56
2022/05/31 07:38:41;;;;;;;0.68;0.40;;;23.20;41.20;;;;;;4910898;28;45199;-58
2022/05/31 07:41:07;;;;;;;2.55;0.40;;;23.20;41.20;;;;;;4917953;28;45355;-55
2022/05/31 07:43:33;;;;;;;1.10;0.43;;;23.20;41.30;;;;;;4914434;28;45954;-55
2022/05/31 07:46:07;;;;;;;0.32;0.30;;;23.20;41.30;;;;;;4918161;28;45090;-60
2022/05/31 07:48:37;;;;;;;0.35;0.35;;;23.30;41.40;;;;;;4909543;28;44985;-59
2022/05/31 07:51:02;;;;;;;0.93;0.47;;;23.20;41.50;;;;;;4918885;28;45400;-60
2022/05/31 07:53:28;;;;;;;0.43;0.40;;;23.10;41.60;;;;;;4894399;28;46001;-59
2022/05/31 07:56:00;;;;;;;0.50;0.40;;;23.10;41.80;;;;;;4915590;28;45528;-60
2022/05/31 07:58:32;;;;;;;0.57;0.40;;;23.10;41.80;;;;;;4899430;28;44993;-59
2022/05/31 08:01:06;;;;;;;0.30;0.30;;;23.10;41.90;;;;;;4916219;28;45119;-61
2022/05/31 08:03:33;;;;;;;1.05;0.50;;;23.10;42.00;;;;;;4915971;28;47145;-62
2022/05/31 08:06:02;;;;;;;1.20;0.40;;;23.10;41.90;;;;;;4885880;28;45299;-60
2022/05/31 08:08:27;;;;;;;3.72;0.60;;;23.10;41.90;;;;;;4900452;28;45525;-61
2022/05/31 08:10:53;;;;;;;2.63;0.50;;;23.20;41.80;;;;;;4908764;28;45672;-60
2022/05/31 08:13:19;;;;;;;1.10;0.75;;;23.20;41.70;;;;;;4926274;28;46161;-61
2022/05/31 08:15:44;;;;;;;0.57;0.52;;;23.10;41.70;;;;;;4911213;28;45276;-61
2022/05/31 08:18:10;;;;;;;0.80;0.55;;;23.10;41.60;;;;;;4907261;28;44757;-63
2022/05/31 08:20:37;;;;;;;1.13;0.60;;;23.20;41.60;;;;;;4913079;28;45231;-62
2022/05/31 08:23:03;;;;;;;2.03;0.50;;;23.20;41.60;;;;;;4898934;28;46919;-61
2022/05/31 08:25:29;;;;;;;0.93;0.80;;;23.20;41.50;;;;;;4904015;28;45097;-59
2022/05/31 08:27:55;;;;;;;3.08;0.68;;;23.20;41.50;;;;;;4902813;28;45543;-61
2022/05/31 08:30:21;;;;;;;0.98;0.73;;;23.20;41.50;;;;;;4905675;28;45868;-59
2022/05/31 08:32:46;;;;;;;0.90;0.80;;;23.20;41.50;;;;;;4906966;28;45385;-59
2022/05/31 08:35:12;;;;;;;1.05;0.63;;;23.30;41.40;;;;;;4906496;28;45245;-58
2022/05/31 08:37:37;;;;;;;2.83;0.60;;;23.30;41.40;;;;;;4915012;28;45567;-60
2022/05/31 08:40:03;;;;;;;0.70;0.65;;;23.30;41.40;;;;;;4920523;28;44713;-60
2022/05/31 08:42:48;;;;;;;1.00;0.73;;;23.30;41.30;;;;;;4915374;28;46274;-59
2022/05/31 08:45:32;;;;;;;0.82;0.70;;;23.40;41.20;;;;;;4894864;28;45331;-58
2022/05/31 08:48:08;;;;;;;1.10;0.60;;;23.40;41.20;;;;;;4904242;28;45603;-58
2022/05/31 08:53:43;;;;;;;1.23;0.75;;;23.50;41.00;;;;;;4903126;28;45141;-60
2022/05/31 08:59:17;;;;;;;2.10;0.98;;;23.50;40.80;;;;;;4896921;28;45179;-59
2022/05/31 09:01:48;;;;;;;2.10;0.75;;;23.60;40.80;;;;;;4898590;28;45629;-59
2022/05/31 09:04:22;;;;;;;2.67;0.70;;;23.60;40.80;;;;;;4911045;28;45595;-60
2022/05/31 09:06:48;;;;;;;;;;;23.60;40.80;;;;;;4890918;28;45580;-58
2022/05/31 09:09:26;;;;;;;1.15;0.68;;;23.60;41.00;;;;;;4894595;28;45661;-59
2022/05/31 09:12:19;;;;;;;0.98;0.65;;;23.60;40.60;;;;;;4896661;28;45161;-58
2022/05/31 09:15:03;;;;;;;1.20;0.73;;;23.60;40.20;;;;;;4895998;28;46181;-59
2022/05/31 09:17:45;;;;;;;3.40;0.90;;;23.60;40.00;;;;;;4913602;28;45467;-60
2022/05/31 09:20:37;;;;;;;1.40;0.75;;;23.70;40.00;;;;;;4909427;28;45140;-58
2022/05/31 09:23:02;;;;;;;3.13;0.60;;;23.70;39.70;;;;;;4891935;28;45779;-61
2022/05/31 09:25:32;;;;;;;2.58;0.70;;;23.70;39.90;;;;;;4908980;28;47092;-59
2022/05/31 09:27:58;;;;;;;1.05;0.52;;;23.70;39.80;;;;;;4894165;28;45546;-61
2022/05/31 09:30:25;;;;;;;1.20;0.70;;;23.70;39.80;;;;;;4891444;28;45541;-60
2022/05/31 09:33:06;;;;;;;0.80;0.65;;;23.80;39.80;;;;;;4909172;28;44826;-61
2022/05/31 09:35:42;;;;;;;1.20;0.68;;;23.80;39.70;;;;;;4872127;28;46250;-60
2022/05/31 09:38:41;;;;;;;0.80;0.60;;;23.80;39.40;;;;;;4891365;28;45493;-60
2022/05/31 09:41:27;;;;;;;0.80;0.80;;;23.80;39.10;;;;;;4913025;28;45162;-59
2022/05/31 09:44:07;;;;;;;3.65;0.60;;;23.80;39.30;;;;;;4900556;28;45192;-59
2022/05/31 09:46:54;;;;;;;1.15;0.70;;;23.80;39.00;;;;;;4913662;28;45920;-59
2022/05/31 09:49:36;;;;;;;1.38;0.60;;;23.80;39.20;;;;;;4903810;28;45105;-60
2022/05/31 09:52:04;;;;;;;0.75;0.55;;;23.90;38.80;;;;;;4909325;28;45022;-61
2022/05/31 09:57:25;;;;;;;1.40;0.63;;;23.90;39.00;;;;;;4890815;28;45914;-59
2022/05/31 09:59:51;;;;;;;1.17;0.65;;;24.00;38.50;;;;;;4906896;28;45195;-61
2022/05/31 10:02:32;;;;;;;0.60;0.60;;;24.00;38.80;;;;;;4891936;28;45210;-60
2022/05/31 10:05:20;;;;;;;0.82;0.50;;;24.00;38.30;;;;;;4904099;28;45266;-59
2022/05/31 10:07:46;;;;;;;1.13;0.60;;;24.00;38.40;;;;;;4910228;28;47030;-59
2022/05/31 10:10:33;;;;;;;2.58;0.68;;;24.00;38.50;;;;;;4905047;28;45622;-60
2022/05/31 10:13:00;;;;;;;2.00;0.60;;;24.00;37.90;;;;;;4912174;28;45114;-58
2022/05/31 10:15:34;;;;;;;2.00;0.73;;;24.00;38.40;;;;;;4893896;28;45792;-60
2022/05/31 10:18:05;;;;;;;2.70;0.80;;;24.10;38.20;;;;;;4916130;28;46210;-60
2022/05/31 10:20:31;;;;;;;1.55;0.68;;;24.10;38.20;;;;;;4911033;28;45198;-59
2022/05/31 10:22:58;;;;;;;1.40;0.70;;;24.10;38.20;;;;;;4903258;28;45292;-61
2022/05/31 10:25:45;;;;;;;2.58;0.68;;;24.10;38.20;;;;;;4911197;28;44698;-59
2022/05/31 10:28:32;;;;;;;0.70;0.60;;;24.10;37.60;;;;;;4899669;28;45458;-58
2022/05/31 10:31:18;;;;;;;2.53;0.55;;;24.10;37.80;;;;;;4911586;28;44909;-61
2022/05/31 10:33:54;;;;;;;0.85;0.73;;;24.10;38.00;;;;;;4903027;28;45227;-60
2022/05/31 10:36:21;;;;;;;3.00;0.70;;;24.10;37.90;;;;;;4914898;28;45290;-60
2022/05/31 10:38:47;;;;;;;1.33;0.60;;;24.20;37.90;;;;;;4914326;28;46326;-60
2022/05/31 10:41:28;;;;;;;0.82;0.40;;;24.20;37.80;;;;;;4904013;28;45186;-60
2022/05/31 10:44:18;;;;;;;1.23;0.75;;;24.20;37.30;;;;;;4893384;28;45748;-61
2022/05/31 10:46:45;;;;;;;2.13;0.60;;;24.20;37.00;;;;;;4889686;28;45301;-60
2022/05/31 10:49:13;;;;;;;1.60;0.63;;;24.20;37.50;;;;;;4901278;28;46150;-60
2022/05/31 10:51:45;;;;;;;1.80;0.60;;;24.20;37.50;;;;;;4907265;28;45287;-60
2022/05/31 10:54:27;;;;;;;3.78;0.70;;;24.20;37.50;;;;;;4912515;28;44634;-60
2022/05/31 10:57:02;;;;;;;1.10;0.60;;;24.20;36.80;;;;;;4913031;28;46052;-57
2022/05/31 10:59:32;;;;;;;0.98;0.68;;;24.20;36.90;;;;;;4902283;28;45713;-60
2022/05/31 11:02:18;;;;;;;0.95;0.50;;;24.20;37.40;;;;;;4919250;28;44734;-60
2022/05/31 11:05:03;;;;;;;1.45;0.50;;;24.20;37.20;;;;;;4891134;28;45430;-57
2022/05/31 11:11:28;;;;;;;1.40;0.70;;;24.20;37.00;;;;;;4897708;28;45375;-58
2022/05/31 11:13:42;;;;;;;3.00;0.47;;;24.20;36.80;;;;;;4900212;28;45256;-58
2022/05/31 11:16:26;;;;;;;1.45;0.52;;;24.30;37.00;;;;;;4903495;28;45175;-58
2022/05/31 11:18:58;;;;;;;0.68;0.40;;;24.20;36.50;;;;;;4911925;28;45178;-59
2022/05/31 11:21:33;;;;;;;1.33;0.77;;;24.30;37.10;;;;;;4888346;28;45299;-61
2022/05/31 11:24:14;;;;;;;0.52;0.50;;;24.30;36.70;;;;;;4912192;28;45249;-61
2022/05/31 11:26:50;;;;;;;3.75;0.60;;;24.30;36.70;;;;;;4899426;28;45486;-61
2022/05/31 11:29:42;;;;;;;0.88;0.50;;;24.30;36.70;;;;;;4900139;28;44694;-60
2022/05/31 11:32:10;;;;;;;0.82;0.60;;;24.30;36.80;;;;;;4899079;28;45202;-60
2022/05/31 11:35:08;;;;;;;1.38;0.85;;;24.30;37.00;;;;;;4887646;28;45214;-61
2022/05/31 11:37:56;;;;;;;1.23;0.70;;;24.30;36.40;;;;;;4847953;28;45475;-61
2022/05/31 11:40:30;;;;;;;4.90;0.60;;;24.30;36.40;;;;;;4920972;28;45256;-60
2022/05/31 11:43:21;;;;;;;0.90;0.55;;;24.40;36.90;;;;;;4895042;28;46981;-61
2022/05/31 11:46:16;;;;;;;1.40;0.50;;;24.40;36.50;;;;;;4910310;28;45207;-62
2022/05/31 11:49:02;;;;;;;1.25;0.60;;;24.30;36.60;;;;;;4877394;28;45283;-61
2022/05/31 11:51:42;;;;;;;0.40;0.40;;;24.40;36.60;;;;;;4907100;28;45452;-58
2022/05/31 11:54:19;;;;;;;2.33;0.65;;;24.40;36.60;;;;;;4906853;28;46571;-58
2022/05/31 11:57:09;;;;;;;1.50;0.60;;;24.40;36.50;;;;;;4902673;28;44991;-59
2022/05/31 11:59:57;;;;;;;2.47;0.70;;;24.40;36.00;;;;;;4896734;28;45511;-59
2022/05/31 12:02:30;;;;;;;0.57;0.40;;;24.40;35.90;;;;;;4904357;28;45472;-60
2022/05/31 12:05:02;;;;;;;0.63;0.60;;;24.40;36.30;;;;;;4897795;28;45926;-59
2022/05/31 12:07:35;;;;;;;1.95;0.70;;;24.40;36.50;;;;;;4893005;28;45257;-60
2022/05/31 12:10:24;;;;;;;0.85;0.63;;;24.40;36.40;;;;;;4897441;28;44706;-59
2022/05/31 12:12:50;;;;;;;0.95;0.52;;;24.40;36.10;;;;;;4897875;28;45383;-61
2022/05/31 12:15:21;;;;;;;2.92;0.50;;;24.40;36.60;;;;;;4893762;28;46116;-59
2022/05/31 12:17:59;;;;;;;2.45;0.75;;;24.50;36.60;;;;;;4893452;28;45310;-59
2022/05/31 12:20:29;;;;;;;0.85;0.68;;;24.40;36.50;;;;;;4894074;28;45438;-59
2022/05/31 12:23:17;;;;;;;0.93;0.50;;;24.40;36.60;;;;;;4902708;28;44895;-60
2022/05/31 12:25:44;;;;;;;0.80;0.50;;;24.50;36.10;;;;;;4896395;28;45999;-59
2022/05/31 12:28:18;;;;;;;0.82;0.55;;;24.40;36.40;;;;;;4902623;28;44764;-60
2022/05/31 12:31:09;;;;;;;0.80;0.52;;;24.40;36.50;;;;;;4894135;28;45226;-59
2022/05/31 12:33:43;;;;;;;0.93;0.50;;;24.50;36.10;;;;;;4897054;28;45432;-59
2022/05/31 12:36:13;;;;;;;1.45;0.50;;;24.50;36.50;;;;;;4896798;28;45531;-59
2022/05/31 12:39:05;;;;;;;1.73;0.60;;;24.50;36.40;;;;;;4901639;28;44712;-59
2022/05/31 12:41:45;;;;;;;2.63;0.60;;;24.60;36.10;;;;;;4902358;28;45260;-58
2022/05/31 12:44:14;;;;;;;4.05;0.55;;;24.60;36.20;;;;;;4899788;28;45285;-60
2022/05/31 12:46:46;;;;;;;0.90;0.50;;;24.50;36.20;;;;;;4897922;28;46284;-60
2022/05/31 12:49:21;;;;;;;0.75;0.52;;;24.50;36.10;;;;;;4902288;28;44615;-59
2022/05/31 12:52:08;;;;;;;1.67;0.50;;;24.50;36.10;;;;;;4894783;28;45267;-59
2022/05/31 12:54:51;;;;;;;0.77;0.50;;;24.50;35.90;;;;;;4903233;28;45235;-60
2022/05/31 13:00:33;;;;;;;1.08;0.50;;;24.50;36.20;;;;;;4914192;28;44627;-58
2022/05/31 13:03:00;;;;;;;2.15;0.65;;;24.60;36.40;;;;;;4924547;28;44816;-60
2022/05/31 13:05:40;;;;;;;0.93;0.60;;;24.50;36.50;;;;;;4902550;28;45510;-60
2022/05/31 13:08:14;;;;;;;2.08;0.55;;;24.60;36.20;;;;;;4911644;28;46095;-59
2022/05/31 13:19:34;;;;;;;1.75;0.50;;;24.60;36.40;;;;;;4912846;28;45237;-61
2022/05/31 13:21:53;;;;;;;1.27;0.60;;;24.60;36.50;;;;;;4900487;28;45078;-60
2022/05/31 13:24:18;;;;;;;0.60;0.60;;;24.60;36.60;;;;;;4911948;28;45302;-60
2022/05/31 13:26:44;;;;;;;2.22;0.60;;;24.60;36.60;;;;;;4921052;28;45370;-60
2022/05/31 13:29:10;;;;;;;2.38;0.50;;;24.60;36.60;;;;;;4899066;28;45268;-59
2022/05/31 13:31:55;;;;;;;1.23;0.50;;;24.50;36.60;;;;;;4918000;28;44890;-60
2022/05/31 13:34:32;;;;;;;2.22;0.60;;;24.50;36.40;;;;;;4911062;28;44663;-60
2022/05/31 13:36:58;;;;;;;1.50;0.57;;;24.60;36.40;;;;;;4903910;28;45257;-59
2022/05/31 13:39:24;;;;;;;0.85;0.43;;;24.60;36.60;;;;;;4894274;28;45987;-61
2022/05/31 13:41:55;;;;;;;1.05;0.52;;;24.60;36.60;;;;;;4912063;28;45133;-61
2022/05/31 13:44:22;;;;;;;1.23;0.50;;;24.60;36.70;;;;;;4905619;28;45370;-60
2022/05/31 13:46:48;;;;;;;0.80;0.50;;;24.50;36.70;;;;;;4893908;28;45444;-60
2022/05/31 13:49:30;;;;;;;2.05;0.80;;;24.60;36.80;;;;;;4898293;28;46187;-60
2022/05/31 13:51:58;;;;;;;1.33;0.70;;;24.50;36.70;;;;;;4884696;28;45457;-60
2022/05/31 13:54:26;;;;;;;2.13;0.60;;;24.50;36.80;;;;;;4901574;28;44916;-58
2022/05/31 13:56:57;;;;;;;1.08;0.50;;;24.60;36.90;;;;;;4913625;28;45740;-59
2022/05/31 13:59:44;;;;;;;0.95;0.50;;;24.50;36.80;;;;;;4917496;28;46013;-60
2022/05/31 14:02:14;;;;;;;1.13;0.50;;;24.50;36.80;;;;;;4915524;28;45137;-60
2022/05/31 14:04:41;;;;;;;0.50;0.45;;;24.50;36.90;;;;;;4903205;28;44724;-59
2022/05/31 14:07:11;;;;;;;2.17;0.60;;;24.50;37.00;;;;;;4896548;28;45202;-61
2022/05/31 14:09:37;;;;;;;0.68;0.50;;;24.50;37.00;;;;;;4900181;28;45046;-59
2022/05/31 14:12:06;;;;;;;1.23;0.55;;;24.50;37.10;;;;;;4916690;28;45134;-59
2022/05/31 14:14:40;;;;;;;1.13;0.52;;;24.50;37.20;;;;;;4900791;28;45363;-58
2022/05/31 14:17:06;;;;;;;0.55;0.52;;;24.50;37.20;;;;;;4897501;28;45181;-60
2022/05/31 14:19:39;;;;;;;1.08;0.40;;;24.50;37.30;;;;;;4895752;28;46169;-60
2022/05/31 14:22:15;;;;;;;;;;;24.50;37.30;;;;;;4921679;28;45258;-60
2022/05/31 14:24:41;;;;;;;0.73;0.47;;;24.50;37.30;;;;;;4912192;28;45202;-60
2022/05/31 14:27:06;;;;;;;1.10;0.50;;;24.40;37.50;;;;;;4902165;28;45251;-58
2022/05/31 14:29:36;;;;;;;1.50;0.50;;;24.50;37.50;;;;;;4900118;28;46182;-61
2022/05/31 14:32:04;;;;;;;1.55;0.60;;;24.50;37.60;;;;;;4909706;28;45194;-60
2022/05/31 14:34:30;;;;;;;2.70;0.50;;;24.50;37.60;;;;;;4920212;28;45167;-59
2022/05/31 14:36:59;;;;;;;2.60;0.60;;;24.40;37.70;;;;;;4921128;28;45251;-59
2022/05/31 14:39:27;;;;;;;1.25;0.60;;;24.50;37.70;;;;;;4917889;28;45175;-60
2022/05/31 14:41:55;;;;;;;2.15;0.52;;;24.40;37.70;;;;;;4893327;28;45177;-61
2022/05/31 14:44:39;;;;;;;1.08;0.52;;;24.50;37.80;;;;;;4911927;28;45341;-59
2022/05/31 14:47:07;;;;;;;;;;;24.50;37.70;;;;;;4911201;28;45491;-57
2022/05/31 14:49:39;;;;;;;0.40;0.40;;;24.40;37.70;;;;;;4916969;28;46135;-60
2022/05/31 14:52:21;;;;;;;2.23;0.57;;;24.50;37.90;;;;;;4901620;28;45375;-59
2022/05/31 14:54:47;;;;;;;0.43;0.40;;;24.40;37.80;;;;;;4911896;28;45188;-59
2022/05/31 14:57:25;;;;;;;0.47;0.47;;;24.40;37.90;;;;;;4922769;28;45342;-60
2022/05/31 14:59:53;;;;;;;0.90;0.60;;;24.50;38.10;;;;;;4894717;28;45099;-61
2022/05/31 15:02:23;;;;;;;1.00;0.55;;;24.50;38.10;;;;;;4922485;28;45507;-60
2022/05/31 15:04:53;;;;;;;0.47;0.47;;;24.50;38.10;;;;;;4896668;28;45363;-59
2022/05/31 15:07:31;;;;;;;0.75;0.70;;;24.50;38.00;;;;;;4919737;28;45608;-59
2022/05/31 15:10:21;;;;;;;0.70;0.40;;;24.50;38.00;;;;;;4915457;28;46051;-60
2022/05/31 15:21:12;;;;;;;0.90;0.50;;;24.40;38.30;;;;;;4909995;28;46264;-60
2022/05/31 15:23:38;;;;;;;0.45;0.43;;;24.40;38.40;;;;;;4891510;28;45100;-61
2022/05/31 15:26:05;;;;;;;1.08;0.50;;;24.30;38.40;;;;;;4892726;28;45282;-59
2022/05/31 15:28:31;;;;;;;0.52;0.50;;;24.40;38.50;;;;;;4907182;28;44846;-60
2022/05/31 15:31:04;;;;;;;0.88;0.50;;;24.40;38.50;;;;;;4906928;28;46055;-60
2022/05/31 15:33:29;;;;;;;0.90;0.65;;;24.40;38.50;;;;;;4892486;28;45534;-60
2022/05/31 15:35:55;;;;;;;0.80;0.68;;;24.40;38.50;;;;;;4912826;28;45543;-60
2022/05/31 15:38:25;;;;;;;0.43;0.40;;;24.30;38.50;;;;;;4881672;28;45249;-60
2022/05/31 15:40:51;;;;;;;1.90;0.70;;;24.40;38.50;;;;;;4881808;28;45913;-60
2022/05/31 15:43:51;;;;;;;0.95;0.55;;;24.30;38.50;;;;;;4914370;28;45343;-60
2022/05/31 15:46:03;;;;;;;0.65;0.47;;;24.30;38.50;;;;;;4913467;28;44937;-59
2022/05/31 15:48:29;;;;;;;1.48;0.82;;;24.30;38.60;;;;;;4915786;28;45304;-60
2022/05/31 15:50:55;;;;;;;0.68;0.40;;;24.30;38.60;;;;;;4897161;28;46160;-61
2022/05/31 15:53:21;;;;;;;1.13;0.60;;;24.30;38.60;;;;;;4924652;28;45534;-61
2022/05/31 15:55:47;;;;;;;0.50;0.50;;;24.30;38.70;;;;;;4884348;28;45290;-60
2022/05/31 15:58:13;;;;;;;1.05;0.65;;;24.30;38.70;;;;;;4915010;28;45311;-60
2022/05/31 16:00:38;;;;;;;0.73;0.50;;;24.20;38.60;;;;;;4895191;28;45517;-61
2022/05/31 16:03:04;;;;;;;0.75;0.55;;;24.30;38.70;;;;;;4913508;28;45237;-61
2022/05/31 16:05:30;;;;;;;1.45;0.60;;;24.20;38.60;;;;;;4896305;28;45329;-60
2022/05/31 16:07:55;;;;;;;0.68;0.45;;;24.20;38.50;;;;;;4893033;28;47237;-61
2022/05/31 16:10:22;;;;;;;0.82;0.43;;;24.20;38.60;;;;;;4912411;28;46162;-61
2022/05/31 16:12:48;;;;;;;0.65;0.60;;;24.20;38.60;;;;;;4912734;28;45572;-61
2022/05/31 16:15:13;;;;;;;0.60;0.50;;;24.20;38.70;;;;;;4895973;28;45794;-62
2022/05/31 16:17:39;;;;;;;0.50;0.50;;;24.20;38.60;;;;;;4896557;28;45002;-68
2022/05/31 16:20:05;;;;;;;1.50;0.60;;;24.20;38.60;;;;;;4911037;28;46352;-61
2022/05/31 16:22:33;;;;;;;3.30;0.65;;;24.20;38.60;;;;;;4909293;28;45461;-60
2022/05/31 16:25:01;;;;;;;2.53;0.65;;;24.20;38.60;;;;;;4894955;28;45644;-61
2022/05/31 16:27:27;;;;;;;1.23;0.60;;;24.20;38.60;;;;;;4894448;28;45312;-59
2022/05/31 16:29:53;;;;;;;0.88;0.60;;;24.10;38.60;;;;;;4890207;28;45402;-60
2022/05/31 16:32:19;;;;;;;1.35;0.43;;;24.10;38.70;;;;;;4916109;28;45421;-59
2022/05/31 16:34:45;;;;;;;0.93;0.68;;;24.10;38.70;;;;;;4896614;28;45450;-61
2022/05/31 16:42:39;;;;;;;0.98;0.32;;;24.10;38.60;;;;;;4910968;28;45448;-62
2022/05/31 16:45:07;;;;;;;1.67;0.40;;;24.10;38.60;;;;;;4913456;28;46332;-59
2022/05/31 16:47:32;;;;;;;0.80;0.60;;;24.10;38.70;;;;;;4896802;28;45258;-60
2022/05/31 16:49:58;;;;;;;0.88;0.60;;;24.10;38.60;;;;;;4911134;28;46233;-61